Log Lane Village, CO

5:31 AM MDT on April 19, 2015 (GMT -0600)
Fort Morgan | | Change Station
CLOSE
Current Station
Personal Weather Station
Location: Fort Morgan, CO
Elevation: 4334 ft
Nearby Weather Stations

Elev 4334 ft 40.26 °N, 103.80 °W | Updated 33 seconds ago

Overcast
Overcast
41.3 °F
Feels Like 41 °F
N
0.0
Wind Variable Wind from North
Gusts 1.0 mph

Today
High -- | Low -- °F
--% Chance of Precip.
Yesterday
High -- | Low -- °F
Precip. -- in
6:11 AM 7:38 PM
New Moon, 1% visible
Pressure 30.09 in
Visibility 10.0 miles
Clouds Scattered Clouds 3200 ft
Scattered Clouds 5000 ft
Overcast 11000 ft
Windchill 41 °F
Dew Point 31 °F
Humidity 67%
Rainfall 0.00 in
Snow Depth Not available.
UV 0 out of 12
Pollen 8.40 out of 12
Air Quality Not available.
Flu Activity Local Activity
METAR KFMM 191115Z AUTO 34020KT 10SM SCT032 SCT050 OVC110 04/M01 A3009 RMK AO2 T00421007

More Conditions Fewer Conditions

Pressure 30.09 in
Visibility 10.0 miles
Clouds Scattered Clouds 3200 ft
Scattered Clouds 5000 ft
Overcast 11000 ft
Windchill 41 °F
Dew Point 31 °F
Humidity 67%
Rainfall 0.00 in
Snow Depth Not available.
UV 0 out of 12
Pollen 8.40 out of 12
Air Quality Not available.
Flu Activity Local Activity
METAR KFMM 191115Z AUTO 34020KT 10SM SCT032 SCT050 OVC110 04/M01 A3009 RMK AO2 T00421007

More Conditions Fewer Conditions

Nowcast | as of 3:24 am MDT on April 19, 2015

Rain showers will diminish in areas north of Akron and Holyoke by 6 am...but will continue in areas further south. Winds will be north at 15 to 25 mph with gusts to 35 mph.

×

10-Day Weather Forecast

Almanac

Astronomy

Apr. 19, 2015 Rise Set
Actual Time
Civil Twilight
Nautical Twilight
Astronomical Twilight
Moon
Length of Visible Light
Length of Day
Tomorrow will be .
, % of the Moon is Illuminated

Today's Extremes

State Highs State Lows

Community

WunderPhotos

Upload Photos

1,814,758 photos uploaded!

WunderBlogs® & News

Nearby

Air Quality

  Air Quality AQ Index Pollutant
Not available.

Snow Depth

Station Depth Elevation

Earthquake Activity

City Distance Mag. Time & Date
Minimum magnitude displayed is 2.5.

Coastal Water Temperatures

Place Temperature

Stations

Nearby Weather Stations

Station Location Temp. Windchill Dew Point Humidity Wind Precip. Elev Updated Type